createdAt,value
2019-02-19T00:00:22.372Z,10.25
2019-02-19T00:02:04.366Z,10.26
2019-02-19T00:02:56.587Z,10.28
2019-02-19T00:03:49.026Z,10.31
2019-02-19T00:04:41.428Z,10.2
2019-02-19T00:05:33.893Z,10.26
2019-02-19T00:06:26.084Z,10.26
2019-02-19T00:07:18.538Z,10.35
2019-02-19T00:08:11.078Z,10.36
2019-02-19T00:09:03.903Z,10.26
2019-02-19T00:09:55.760Z,10.29
2019-02-19T00:10:48.289Z,10.29
2019-02-19T00:11:40.581Z,10.28
2019-02-19T00:12:33.051Z,10.38
2019-02-19T00:13:25.597Z,10.35
2019-02-19T00:14:17.954Z,10.32
2019-02-19T00:15:10.658Z,10.35
2019-02-19T00:16:03.133Z,10.34
2019-02-19T00:16:55.777Z,10.31
2019-02-19T00:17:48.149Z,10.35
2019-02-19T00:18:40.591Z,10.34
2019-02-19T00:19:32.826Z,10.29
2019-02-19T00:20:25.118Z,10.26
2019-02-19T00:21:17.117Z,10.28
2019-02-19T00:22:09.344Z,10.28
2019-02-19T00:23:02.199Z,10.28
2019-02-19T00:23:54.323Z,10.29
2019-02-19T00:24:46.421Z,10.25
2019-02-19T00:25:38.556Z,10.36
2019-02-19T00:26:31.133Z,10.28
2019-02-19T00:27:23.563Z,10.32
2019-02-19T00:28:15.971Z,10.28
2019-02-19T00:29:10.073Z,10.25
2019-02-19T00:30:02.556Z,10.24
2019-02-19T00:30:55.356Z,10.26
2019-02-19T00:31:47.460Z,10.22
2019-02-19T00:32:39.860Z,10.16
2019-02-19T00:33:31.966Z,10.14
2019-02-19T00:34:23.992Z,10.2
2019-02-19T00:35:16.461Z,10.26
2019-02-19T00:36:08.607Z,10.32
2019-02-19T00:37:00.816Z,10.36
2019-02-19T00:37:54.058Z,10.39
2019-02-19T00:38:46.386Z,10.49
2019-02-19T00:39:39.538Z,10.49
2019-02-19T00:40:31.706Z,10.51
2019-02-19T00:41:24.019Z,10.39
2019-02-19T00:42:18.185Z,10.52
2019-02-19T00:43:10.209Z,10.42
2019-02-19T00:44:02.446Z,10.46
2019-02-19T00:44:54.913Z,10.38
2019-02-19T00:45:46.993Z,10.31
2019-02-19T00:46:39.515Z,10.34
2019-02-19T00:47:32.677Z,10.29
2019-02-19T00:48:24.819Z,10.18
2019-02-19T00:49:16.898Z,10.13
2019-02-19T00:50:10.246Z,10.14
2019-02-19T00:51:02.161Z,10.01
2019-02-19T00:51:54.537Z,9.98
2019-02-19T00:52:47.784Z,10.04
2019-02-19T00:53:40.095Z,10.09
2019-02-19T00:54:33.372Z,10.04
2019-02-19T00:55:26.088Z,10.06
2019-02-19T00:56:18.200Z,10.07
2019-02-19T00:57:10.528Z,10.06
2019-02-19T00:58:03.264Z,10.06
2019-02-19T00:58:55.684Z,10.09
2019-02-19T00:59:47.791Z,10.09
2019-02-19T01:00:40.029Z,10.11
2019-02-19T01:01:34.322Z,10.11
2019-02-19T01:02:26.077Z,10.13
2019-02-19T01:03:18.037Z,10.1
2019-02-19T01:04:10.106Z,10.13
2019-02-19T01:05:04.592Z,10.13
2019-02-19T01:05:56.053Z,10.13
2019-02-19T01:06:49.595Z,10.16
2019-02-19T01:07:42.024Z,10.22
2019-02-19T01:08:34.167Z,10.18
2019-02-19T01:09:14.531Z,10.17
2019-02-19T01:09:55.258Z,10.2
2019-02-19T01:10:35.715Z,10.24
2019-02-19T01:11:16.347Z,10.26
2019-02-19T01:11:56.718Z,10.28
2019-02-19T01:12:37.298Z,10.24
2019-02-19T01:13:18.003Z,10.26
2019-02-19T01:13:58.622Z,10.29
2019-02-19T01:14:39.261Z,10.38
2019-02-19T01:15:25.356Z,10.35
2019-02-19T01:16:01.131Z,10.36
2019-02-19T01:16:42.558Z,10.38
2019-02-19T01:17:23.526Z,10.47
2019-02-19T01:18:04.021Z,10.44
2019-02-19T01:18:44.767Z,10.43
2019-02-19T01:19:25.329Z,10.54
2019-02-19T01:20:06.342Z,10.49
2019-02-19T01:20:46.902Z,10.55
2019-02-19T01:21:27.756Z,10.49
2019-02-19T01:22:10.461Z,10.6
2019-02-19T01:22:50.751Z,10.63
2019-02-19T01:23:31.272Z,10.66
2019-02-19T01:24:11.975Z,10.69
2019-02-19T01:24:52.602Z,10.7
2019-02-19T01:25:33.315Z,10.8
2019-02-19T01:27:51.402Z,11.11
2019-02-19T01:28:38.412Z,11.11
2019-02-19T01:29:20.306Z,11.23
2019-02-19T01:30:00.929Z,11.27
2019-02-19T01:30:41.497Z,11.42
2019-02-19T01:31:22.051Z,11.49
2019-02-19T01:32:02.610Z,11.6
2019-02-19T01:32:43.859Z,11.67
2019-02-19T01:33:24.428Z,11.7
2019-02-19T01:34:05.915Z,11.75
2019-02-19T01:34:46.341Z,11.88
2019-02-19T01:35:29.233Z,11.97
2019-02-19T01:36:10.563Z,11.94
2019-02-19T01:36:51.164Z,12.05
2019-02-19T01:37:31.409Z,12.15
2019-02-19T01:39:33.488Z,12.21
2019-02-19T01:42:08.057Z,12.21
2019-02-19T01:42:59.415Z,12.19
2019-02-19T01:43:51.435Z,12.13
2019-02-19T01:44:39.595Z,12.15
2019-02-19T01:45:35.839Z,12.26
2019-02-19T01:47:14.847Z,12.12
2019-02-19T01:49:05.312Z,11.97
2019-02-19T01:49:57.843Z,12.03
2019-02-19T01:50:50.107Z,12.11
2019-02-19T01:51:43.379Z,12.05
2019-02-19T01:53:46.016Z,12.12
2019-02-19T01:55:31.836Z,12.22
2019-02-19T01:56:24.777Z,12.12
2019-02-19T01:57:20.392Z,12.15
2019-02-19T01:58:12.891Z,12.15
2019-02-19T01:59:11.500Z,12.22
2019-02-19T02:00:03.741Z,12.29
2019-02-19T02:00:56.438Z,12.21
2019-02-19T02:02:03.023Z,12.12
2019-02-19T02:02:57.480Z,12.16
2019-02-19T02:04:06.728Z,12.13
2019-02-19T02:04:59.386Z,12.18
2019-02-19T02:05:52.819Z,12.15
2019-02-19T02:06:49.090Z,12.04
2019-02-19T02:07:41.880Z,12.07
2019-02-19T02:08:36.563Z,12.08
2019-02-19T02:09:35.845Z,12.11
2019-02-19T02:10:29.366Z,12.18
2019-02-19T02:11:23.893Z,12.12
2019-02-19T02:12:16.502Z,12.15
2019-02-19T02:13:11.960Z,12.13
2019-02-19T02:14:09.116Z,12.25
2019-02-19T02:15:01.587Z,12.25
2019-02-19T02:15:57.608Z,12.23
2019-02-19T02:16:49.924Z,12.25
2019-02-19T02:17:47.029Z,12.22
2019-02-19T02:18:39.109Z,12.37
2019-02-19T02:19:35.869Z,12.23
2019-02-19T02:20:28.928Z,12.25
2019-02-19T02:21:26.061Z,12.25
2019-02-19T02:22:18.301Z,12.3
2019-02-19T02:23:18.384Z,12.3
2019-02-19T02:24:16.517Z,12.23
2019-02-19T02:25:08.858Z,12.25
2019-02-19T02:26:01.810Z,12.15
2019-02-19T02:26:54.883Z,12.34
2019-02-19T02:27:47.422Z,12.31
2019-02-19T02:28:40.483Z,12.33
2019-02-19T02:29:34.261Z,12.33
2019-02-19T02:30:26.474Z,12.36
2019-02-19T02:32:52.768Z,12.56
2019-02-19T02:33:38.197Z,12.63
2019-02-19T02:34:19.034Z,12.61
2019-02-19T02:35:01.929Z,12.59
2019-02-19T02:35:42.272Z,12.56
2019-02-19T02:36:22.829Z,12.63
2019-02-19T02:37:03.369Z,12.74
2019-02-19T02:37:44.407Z,12.69
2019-02-19T02:38:25.591Z,12.66
2019-02-19T02:39:06.096Z,12.59
2019-02-19T02:39:47.732Z,12.56
2019-02-19T02:40:28.294Z,12.59
2019-02-19T02:41:08.756Z,12.69
2019-02-19T02:41:49.748Z,12.59
2019-02-19T02:42:30.708Z,12.54
2019-02-19T02:43:11.505Z,12.58
2019-02-19T02:43:52.006Z,12.61
2019-02-19T02:44:32.882Z,12.63
2019-02-19T02:45:14.894Z,12.71
2019-02-19T02:45:55.540Z,12.76
2019-02-19T02:46:37.059Z,12.76
2019-02-19T02:47:17.470Z,12.79
2019-02-19T02:47:58.378Z,12.7
2019-02-19T02:48:39.532Z,12.73
2019-02-19T02:49:19.963Z,12.77
2019-02-19T02:50:01.654Z,12.73
2019-02-19T02:50:42.146Z,12.77
2019-02-19T02:51:22.496Z,12.77
2019-02-19T02:52:02.949Z,12.7
2019-02-19T02:52:43.605Z,12.59
2019-02-19T02:53:24.058Z,12.58
2019-02-19T02:54:04.719Z,12.55
2019-02-19T02:54:45.491Z,12.61
2019-02-19T02:55:28.316Z,12.58
2019-02-19T02:56:08.911Z,12.59
2019-02-19T02:56:49.260Z,12.59
2019-02-19T02:57:29.952Z,12.7
2019-02-19T02:58:10.391Z,12.62
2019-02-19T02:58:50.992Z,12.79
2019-02-19T02:59:32.151Z,12.73
2019-02-19T03:00:13.049Z,12.77
2019-02-19T03:00:53.135Z,12.76
2019-02-19T03:01:34.286Z,12.89
2019-02-19T03:02:15.290Z,12.98
2019-02-19T03:02:55.793Z,12.91
2019-02-19T03:03:36.553Z,12.94
2019-02-19T03:04:17.615Z,12.8
2019-02-19T03:04:58.993Z,12.8
2019-02-19T03:05:39.795Z,12.81
2019-02-19T03:06:20.515Z,12.77
2019-02-19T03:07:13.202Z,12.77
2019-02-19T03:07:53.787Z,12.73
2019-02-19T03:08:34.315Z,12.77
2019-02-19T03:09:15.177Z,12.77
2019-02-19T03:09:56.563Z,12.77
2019-02-19T03:10:40.112Z,12.76
2019-02-19T03:11:20.587Z,12.81
2019-02-19T03:12:00.937Z,12.84
2019-02-19T03:12:41.585Z,12.8
2019-02-19T03:13:22.093Z,12.77
2019-02-19T03:14:02.466Z,12.8
2019-02-19T03:14:43.134Z,12.79
2019-02-19T03:15:23.617Z,12.89
2019-02-19T03:16:04.257Z,12.95
2019-02-19T03:16:44.730Z,12.96
2019-02-19T03:17:25.258Z,12.96
2019-02-19T03:18:05.622Z,12.84
2019-02-19T03:18:46.154Z,12.76
2019-02-19T03:19:26.803Z,12.77
2019-02-19T03:20:07.656Z,12.77
2019-02-19T03:20:48.090Z,12.79
2019-02-19T03:21:29.436Z,12.81
2019-02-19T03:22:10.190Z,12.81
2019-02-19T03:22:53.549Z,12.87
2019-02-19T03:23:35.714Z,12.85
2019-02-19T03:24:17.315Z,12.89
2019-02-19T03:24:58.629Z,12.8
2019-02-19T03:25:39.097Z,12.94
2019-02-19T03:26:20.096Z,12.94
2019-02-19T03:27:01.994Z,12.89
2019-02-19T03:27:43.592Z,12.77
2019-02-19T03:28:23.868Z,12.8
2019-02-19T03:29:04.443Z,12.81
2019-02-19T03:29:44.740Z,12.85
2019-02-19T03:30:25.425Z,12.71
2019-02-19T03:31:06.007Z,12.59
2019-02-19T03:31:46.774Z,12.61
2019-02-19T03:32:27.041Z,12.61
2019-02-19T03:33:09.139Z,12.73
2019-02-19T03:33:49.703Z,12.66
2019-02-19T03:34:31.963Z,12.61
2019-02-19T03:35:12.183Z,12.62
2019-02-19T03:35:52.756Z,12.61
2019-02-19T03:36:33.178Z,12.61
2019-02-19T03:37:13.737Z,12.67
2019-02-19T03:37:54.176Z,12.66
2019-02-19T03:38:34.717Z,12.71
2019-02-19T03:39:15.105Z,12.73
2019-02-19T03:39:57.575Z,12.8
2019-02-19T03:40:38.303Z,12.61
2019-02-19T03:41:18.740Z,12.63
2019-02-19T03:41:59.295Z,12.77
2019-02-19T03:42:40.321Z,12.77
2019-02-19T03:43:20.948Z,12.73
2019-02-19T03:44:02.302Z,12.71
2019-02-19T03:44:43.109Z,12.74
2019-02-19T03:45:23.668Z,12.77
2019-02-19T03:46:11.711Z,12.79
2019-02-19T03:46:44.550Z,12.8
2019-02-19T03:47:25.037Z,12.77
2019-02-19T03:48:05.613Z,12.84
2019-02-19T03:48:46.631Z,12.96
2019-02-19T03:49:27.026Z,12.95
2019-02-19T03:50:07.809Z,12.91
2019-02-19T03:50:47.944Z,12.95
2019-02-19T03:51:28.585Z,12.96
2019-02-19T03:52:08.985Z,12.98
2019-02-19T03:52:49.382Z,12.81
2019-02-19T03:53:30.405Z,12.81
2019-02-19T03:54:11.113Z,12.94
2019-02-19T03:54:51.432Z,12.95
2019-02-19T03:55:32.543Z,12.96
2019-02-19T03:56:12.953Z,13.01
2019-02-19T03:56:53.381Z,12.95
2019-02-19T03:57:34.185Z,12.89
2019-02-19T03:58:14.880Z,13.04
2019-02-19T03:58:55.901Z,13.06
2019-02-19T03:59:37.289Z,13.07
2019-02-19T04:00:18.105Z,12.98
2019-02-19T04:00:58.664Z,12.94
2019-02-19T04:01:39.072Z,12.98
2019-02-19T04:02:19.680Z,13.01
2019-02-19T04:03:02.171Z,13.01
2019-02-19T04:03:42.497Z,13.07
2019-02-19T04:04:23.641Z,13.06
2019-02-19T04:05:04.099Z,12.94
2019-02-19T04:05:44.803Z,12.96
2019-02-19T04:06:27.071Z,13.04
2019-02-19T04:07:07.317Z,13.04
2019-02-19T04:07:48.171Z,13.07
2019-02-19T04:08:28.960Z,13.03
2019-02-19T04:09:09.346Z,12.99
2019-02-19T04:09:49.749Z,12.94
2019-02-19T04:10:30.736Z,12.94
2019-02-19T04:11:11.255Z,12.99
2019-02-19T04:11:51.536Z,12.98
2019-02-19T04:12:31.909Z,12.99
2019-02-19T04:13:13.224Z,12.96
2019-02-19T04:13:53.657Z,13.01
2019-02-19T04:14:34.031Z,12.99
2019-02-19T04:15:14.561Z,12.98
2019-02-19T04:15:55.038Z,12.92
2019-02-19T04:16:35.528Z,12.88
2019-02-19T04:17:15.860Z,12.91
2019-02-19T04:17:57.159Z,12.95
2019-02-19T04:18:37.524Z,12.87
2019-02-19T04:19:18.054Z,12.91
2019-02-19T04:19:58.409Z,12.92
2019-02-19T04:20:38.821Z,12.94
2019-02-19T04:22:59.371Z,12.98
2019-02-19T04:23:51.817Z,12.96
2019-02-19T04:24:44.613Z,12.76
2019-02-19T04:25:36.669Z,12.88
2019-02-19T04:26:29.914Z,12.79
2019-02-19T04:27:24.258Z,12.79
2019-02-19T04:28:16.753Z,12.63
2019-02-19T05:05:58.562Z,10.69
2019-02-19T05:06:46.939Z,10.65
2019-02-19T05:07:28.451Z,10.68
2019-02-19T05:08:11.304Z,10.58
2019-02-19T05:08:51.873Z,10.7
2019-02-19T05:09:32.264Z,10.73
2019-02-19T05:10:12.716Z,10.73
2019-02-19T05:10:53.157Z,10.7
2019-02-19T05:11:34.064Z,10.68
2019-02-19T05:12:16.574Z,10.73
2019-02-19T05:12:57.112Z,10.73
2019-02-19T05:13:37.936Z,10.58
2019-02-19T05:14:18.316Z,10.68
2019-02-19T05:18:20.571Z,10.65
2019-02-19T05:19:12.958Z,10.76
2019-02-19T05:20:05.434Z,10.73
2019-02-19T05:20:58.442Z,10.9
2019-02-19T05:21:51.380Z,10.88
2019-02-19T05:22:43.463Z,10.86
2019-02-19T05:23:36.793Z,10.87
2019-02-19T05:24:29.204Z,10.88
2019-02-19T05:25:21.886Z,10.98
2019-02-19T05:26:13.917Z,10.93
2019-02-19T05:27:07.025Z,10.93
2019-02-19T05:28:05.084Z,10.91
2019-02-19T05:28:57.568Z,10.94
2019-02-19T05:29:50.257Z,10.9
2019-02-19T05:30:43.074Z,10.84
2019-02-19T05:31:35.979Z,10.88
2019-02-19T05:32:28.403Z,10.93
2019-02-19T05:33:22.029Z,10.95
2019-02-19T05:34:15.383Z,11.06
2019-02-19T05:35:09.009Z,11.03
2019-02-19T05:36:01.616Z,11.02
2019-02-19T05:36:54.224Z,10.98
2019-02-19T05:37:47.249Z,10.93
2019-02-19T05:38:40.104Z,10.88
2019-02-19T05:39:32.322Z,11.02
2019-02-19T05:40:24.522Z,10.95
2019-02-19T05:41:19.236Z,10.91
2019-02-19T05:42:11.330Z,10.99
2019-02-19T05:43:03.500Z,10.93
2019-02-19T05:43:55.714Z,11.05
2019-02-19T05:44:47.538Z,11.12
2019-02-19T05:45:40.486Z,11.09
2019-02-19T05:46:33.104Z,11.12
2019-02-19T05:47:25.920Z,11.2
2019-02-19T05:48:17.911Z,11.21
2019-02-19T05:49:10.886Z,11.16
2019-02-19T05:50:05.411Z,11.2
2019-02-19T05:50:57.439Z,11.27
2019-02-19T05:51:49.559Z,11.28
2019-02-19T05:52:43.001Z,11.31
2019-02-19T05:53:34.841Z,11.44
2019-02-19T05:54:26.900Z,11.48
2019-02-19T05:55:23.847Z,11.38
2019-02-19T05:56:15.921Z,11.27
2019-02-19T05:57:08.615Z,11.17
2019-02-19T05:58:01.258Z,11.3
2019-02-19T05:58:55.043Z,11.23
2019-02-19T05:59:46.893Z,11.17
2019-02-19T06:00:42.496Z,11.16
2019-02-19T06:02:36.628Z,11.12
2019-02-19T06:03:29.741Z,11.08
2019-02-19T06:04:23.292Z,11.2
2019-02-19T06:05:16.307Z,11.05
2019-02-19T06:06:08.640Z,11.05
2019-02-19T06:07:01.739Z,11.13
2019-02-19T06:07:53.757Z,11.21
2019-02-19T06:08:46.589Z,11.19
2019-02-19T06:09:38.580Z,11.2
2019-02-19T06:10:31.694Z,11.2
2019-02-19T06:11:25.753Z,11.28
2019-02-19T06:12:21.003Z,11.23
2019-02-19T06:13:13.375Z,11.23
2019-02-19T06:14:05.603Z,11.3
2019-02-19T06:14:57.676Z,11.21
2019-02-19T06:15:49.887Z,11.17
2019-02-19T06:16:43.293Z,11.17
2019-02-19T06:17:35.987Z,11.17
2019-02-19T06:18:34.144Z,11.2
2019-02-19T06:19:33.198Z,11.21
2019-02-19T06:20:25.800Z,11.21
2019-02-19T06:21:17.864Z,11.19
2019-02-19T06:22:10.796Z,11.27
2019-02-19T06:23:02.638Z,11.38
2019-02-19T06:23:55.266Z,11.39
2019-02-19T06:24:47.313Z,11.49
2019-02-19T06:25:38.659Z,11.56
2019-02-19T06:26:21.420Z,11.53
2019-02-19T06:27:01.969Z,11.53
2019-02-19T06:27:42.391Z,11.56
2019-02-19T06:28:22.936Z,11.53
2019-02-19T06:29:03.308Z,11.6
2019-02-19T06:29:43.757Z,11.67
2019-02-19T06:30:24.504Z,11.66
2019-02-19T06:31:04.942Z,11.7
2019-02-19T06:31:45.285Z,11.78
2019-02-19T06:32:25.946Z,11.78
2019-02-19T06:33:06.949Z,11.81
2019-02-19T06:33:47.866Z,11.77
2019-02-19T06:34:28.661Z,11.79
2019-02-19T06:35:09.301Z,11.72
2019-02-19T06:35:49.691Z,11.67
2019-02-19T06:36:30.093Z,11.67
2019-02-19T06:37:10.601Z,11.7
2019-02-19T06:37:50.878Z,11.6
2019-02-19T06:38:31.300Z,11.62
2019-02-19T06:39:15.464Z,11.57
2019-02-19T06:40:00.898Z,11.63
2019-02-19T06:40:41.572Z,11.62
2019-02-19T06:41:36.337Z,11.67
2019-02-19T06:43:36.534Z,11.66
2019-02-19T06:44:34.342Z,11.63
2019-02-19T06:45:40.578Z,11.69
2019-02-19T06:46:50.596Z,11.72
2019-02-19T06:47:45.584Z,11.63
2019-02-19T06:48:43.970Z,11.63
2019-02-19T06:49:35.982Z,11.57
2019-02-19T06:50:38.208Z,11.64
2019-02-19T06:53:06.941Z,11.48
2019-02-19T06:54:39.245Z,11.57
2019-02-19T06:55:32.235Z,11.48
2019-02-19T06:56:28.007Z,11.42
2019-02-19T06:57:20.573Z,11.45
2019-02-19T06:58:16.394Z,11.48
2019-02-19T06:59:09.371Z,11.42
2019-02-19T07:00:03.494Z,11.35
2019-02-19T07:01:00.436Z,11.35
2019-02-19T07:01:54.302Z,11.26
2019-02-19T07:02:49.068Z,11.2
2019-02-19T07:03:47.042Z,11.31
2019-02-19T07:04:43.887Z,11.3
2019-02-19T07:05:37.633Z,11.26
2019-02-19T07:06:30.702Z,11.39
2019-02-19T07:07:29.800Z,11.41
2019-02-19T07:08:22.547Z,11.39
2019-02-19T07:09:14.886Z,11.35
2019-02-19T07:10:07.251Z,11.39
2019-02-19T07:11:00.379Z,11.41
2019-02-19T07:11:53.174Z,11.44
2019-02-19T07:14:08.221Z,11.44
2019-02-19T07:15:06.784Z,11.35
2019-02-19T07:16:01.797Z,11.45
2019-02-19T07:16:55.845Z,11.53
2019-02-19T07:17:48.771Z,11.66
2019-02-19T07:18:44.330Z,11.54
2019-02-19T07:19:36.689Z,11.63
2019-02-19T07:20:29.332Z,11.72
2019-02-19T07:21:22.088Z,11.63
2019-02-19T07:22:15.510Z,11.78
2019-02-19T07:23:08.741Z,11.67
2019-02-19T07:24:04.318Z,11.67
2019-02-19T07:24:53.471Z,11.63
2019-02-19T07:25:48.337Z,11.67
2019-02-19T07:26:41.579Z,11.62
2019-02-19T07:27:33.900Z,11.81
2019-02-19T07:28:27.168Z,11.78
2019-02-19T07:29:21.399Z,11.72
2019-02-19T07:30:16.086Z,11.63
2019-02-19T07:31:09.901Z,11.66
2019-02-19T07:32:05.206Z,11.87
2019-02-19T07:32:57.839Z,11.94
2019-02-19T07:33:53.741Z,11.84
2019-02-19T07:34:46.562Z,11.87
2019-02-19T07:35:41.686Z,11.97
2019-02-19T07:36:34.177Z,11.93
2019-02-19T07:37:27.356Z,11.87
2019-02-19T07:38:24.623Z,11.98
2019-02-19T07:39:21.152Z,12.04
2019-02-19T07:40:17.462Z,11.93
2019-02-19T07:41:11.081Z,11.97
2019-02-19T07:42:07.910Z,11.96
2019-02-19T07:43:02.913Z,12.01
2019-02-19T07:43:55.819Z,11.97
2019-02-19T07:44:53.973Z,11.84
2019-02-19T07:45:47.062Z,11.84
2019-02-19T07:46:41.639Z,11.84
2019-02-19T07:48:58.700Z,11.9
2019-02-19T07:53:30.966Z,11.9
2019-02-19T07:54:27.941Z,11.88
2019-02-19T07:56:47.320Z,11.87
2019-02-19T08:06:38.382Z,12.04
2019-02-19T08:11:14.581Z,12.16
2019-02-19T08:12:07.327Z,12.15
2019-02-19T08:12:59.963Z,12.16
2019-02-19T08:13:54.978Z,12.18
2019-02-19T08:14:52.229Z,12.04
2019-02-19T08:17:23.140Z,11.94
2019-02-19T08:23:49.288Z,12.31
2019-02-19T08:25:26.370Z,12.22
2019-02-19T08:26:25.989Z,12.12
2019-02-19T08:27:40.250Z,12.23
2019-02-19T08:28:44.773Z,12.22
2019-02-19T08:29:44.465Z,12.31
2019-02-19T08:30:39.785Z,12.34
2019-02-19T08:31:35.188Z,12.43
2019-02-19T08:32:29.948Z,12.51
2019-02-19T08:33:24.661Z,12.46
2019-02-19T08:34:26.293Z,12.43
2019-02-19T08:35:19.124Z,12.43
2019-02-19T08:36:15.465Z,12.55
2019-02-19T08:37:07.382Z,12.44
2019-02-19T08:38:02.418Z,12.44
2019-02-19T08:38:55.993Z,12.44
2019-02-19T08:39:48.436Z,12.48
2019-02-19T08:40:43.492Z,12.49
2019-02-19T08:41:39.281Z,12.44
2019-02-19T08:47:10.681Z,12.48
2019-02-19T08:47:59.245Z,12.43
2019-02-19T09:10:57.576Z,13.21
2019-02-19T09:12:31.143Z,13.48
2019-02-19T09:13:29.675Z,13.44
2019-02-19T09:14:27.840Z,13.51
2019-02-19T09:15:26.460Z,13.68
2019-02-19T09:16:26.643Z,13.71
2019-02-19T09:17:26.673Z,13.86
2019-02-19T09:18:26.907Z,13.99
2019-02-19T09:19:24.011Z,14.05
2019-02-19T09:20:24.091Z,14.27
2019-02-19T09:21:38.740Z,14.45
2019-02-19T09:23:33.064Z,14.9
2019-02-19T09:25:49.600Z,15.3
2019-02-19T09:31:09.137Z,16.45
2019-02-19T09:31:50.048Z,16.57
2019-02-19T09:32:30.744Z,16.72
2019-02-19T09:33:12.056Z,16.9
2019-02-19T09:33:56.291Z,17.25
2019-02-19T09:34:39.028Z,17.18
2019-02-19T09:35:28.420Z,17.25
2019-02-19T09:36:15.600Z,17.49
2019-02-19T09:36:57.066Z,17.62
2019-02-19T09:37:37.626Z,17.84
2019-02-19T09:38:19.460Z,17.96
2019-02-19T09:39:00.907Z,18.16
2019-02-19T09:49:53.785Z,18.84
2019-02-19T09:51:41.707Z,18.93
2019-02-19T09:52:28.712Z,18.83
2019-02-19T09:53:07.455Z,18.91
2019-02-19T09:53:48.342Z,19.05
2019-02-19T09:54:31.353Z,19.1
2019-02-19T09:55:12.877Z,19.12
2019-02-19T09:55:53.610Z,19.1
2019-02-19T09:56:34.273Z,19.13
2019-02-19T09:57:15.090Z,19.28
2019-02-19T09:57:56.665Z,19.24
2019-02-19T09:58:39.297Z,19.23
2019-02-19T09:59:21.442Z,19.25
2019-02-19T10:00:02.645Z,19.27
2019-02-19T10:00:43.487Z,19.25
2019-02-19T10:01:24.245Z,19.52
2019-02-19T10:02:06.946Z,19.61
2019-02-19T10:02:55.703Z,19.61
2019-02-19T10:03:38.223Z,19.49
2019-02-19T10:04:20.668Z,19.49
2019-02-19T10:05:02.258Z,19.55
2019-02-19T10:05:48.070Z,19.62
2019-02-19T10:06:30.478Z,19.71
2019-02-19T10:07:11.484Z,19.78
2019-02-19T10:07:55.831Z,19.79
2019-02-19T10:08:36.041Z,19.95
2019-02-19T10:09:18.327Z,19.98
2019-02-19T10:10:01.204Z,20.15
2019-02-19T10:10:48.587Z,20.34
2019-02-19T10:11:34.183Z,20.22
2019-02-19T10:12:14.693Z,20.17
2019-02-19T10:12:55.220Z,20.2
2019-02-19T10:13:35.837Z,20.31
2019-02-19T10:14:16.391Z,20.26
2019-02-19T10:14:57.184Z,20.4
2019-02-19T10:15:38.076Z,20.31
2019-02-19T10:16:20.750Z,20.48
2019-02-19T10:17:04.154Z,20.37
2019-02-19T10:22:16.274Z,19.86
2019-02-19T10:23:00.759Z,19.97
2019-02-19T10:23:46.757Z,19.98
2019-02-19T10:24:30.467Z,19.83
2019-02-19T10:25:20.796Z,19.72
2019-02-19T10:26:14.450Z,19.79
2019-02-19T10:26:55.181Z,19.94
2019-02-19T10:27:37.101Z,20.08
2019-02-19T10:28:20.360Z,20.05
2019-02-19T10:29:13.390Z,20.08
2019-02-19T11:06:34.950Z,20.02
2019-02-19T11:07:16.134Z,20.1
2019-02-19T11:07:59.316Z,20.3
2019-02-19T11:08:41.770Z,20.13
2019-02-19T11:09:23.779Z,20.15
2019-02-19T11:10:06.324Z,20.1
2019-02-19T11:10:48.606Z,20.13
2019-02-19T11:11:30.827Z,20.2
2019-02-19T11:12:11.979Z,20.08
2019-02-19T11:12:53.313Z,19.78
2019-02-19T11:13:35.802Z,19.47
2019-02-19T11:14:19.119Z,19.42
2019-02-19T11:15:02.483Z,19.45
2019-02-19T11:15:46.716Z,19.38
2019-02-19T11:16:29.308Z,19.42
2019-02-19T11:17:09.668Z,19.6
2019-02-19T11:17:50.888Z,19.75
2019-02-19T11:18:37.336Z,19.89
2019-02-19T11:19:19.374Z,19.89
2019-02-19T11:19:59.774Z,19.87
2019-02-19T11:20:40.815Z,19.78
2019-02-19T11:21:27.295Z,19.58
2019-02-19T11:22:09.223Z,19.5
2019-02-19T11:22:54.434Z,19.35
2019-02-19T11:23:35.854Z,19.47
2019-02-19T11:24:21.307Z,19.62
2019-02-19T11:25:02.666Z,19.79
2019-02-19T11:27:01.021Z,19.97
2019-02-19T11:27:56.712Z,19.94
2019-02-19T11:28:40.965Z,20.04
2019-02-19T11:29:19.571Z,20.22
2019-02-19T11:30:01.830Z,20.13
2019-02-19T11:30:43.247Z,20.23
2019-02-19T11:31:23.780Z,20.34
2019-02-19T11:32:07.829Z,20.51
2019-02-19T11:32:51.260Z,20.54
2019-02-19T11:33:32.168Z,20.5
2019-02-19T11:34:13.716Z,20.58
2019-02-19T11:34:55.007Z,20.58
2019-02-19T11:35:35.886Z,20.64
2019-02-19T11:36:16.570Z,20.88
2019-02-19T11:36:57.310Z,20.91
2019-02-19T11:37:40.353Z,20.96
2019-02-19T11:38:20.737Z,21.08
2019-02-19T11:39:02.795Z,21.19
2019-02-19T11:39:43.246Z,21.33
2019-02-19T11:40:26.422Z,21.27
2019-02-19T11:41:10.399Z,21.34
2019-02-19T11:41:51.562Z,21.31
2019-02-19T11:42:36.876Z,21.48
2019-02-19T11:43:20.008Z,21.61
2019-02-19T11:44:00.317Z,21.61
2019-02-19T11:44:41.768Z,21.46
2019-02-19T11:45:23.134Z,21.51
2019-02-19T11:46:03.512Z,21.64
2019-02-19T11:46:44.733Z,21.79
2019-02-19T11:47:26.539Z,21.58
2019-02-19T11:48:09.729Z,21.59
2019-02-19T11:48:53.270Z,21.51
2019-02-19T11:49:33.780Z,21.61
2019-02-19T11:50:14.149Z,21.63
2019-02-19T11:50:54.577Z,21.79
2019-02-19T11:51:39.222Z,21.82
2019-02-19T11:52:20.569Z,21.67
2019-02-19T11:53:02.628Z,21.68
2019-02-19T11:53:44.993Z,21.63
2019-02-19T11:54:27.268Z,21.64
2019-02-19T11:55:08.766Z,21.3
2019-02-19T11:55:49.202Z,21.19
2019-02-19T11:56:32.242Z,21.15
2019-02-19T11:57:16.243Z,20.96
2019-02-19T11:58:01.239Z,20.88
2019-02-19T12:01:08.834Z,21.05
2019-02-19T12:02:47.649Z,21.36
2019-02-19T12:15:03.451Z,20.61
2019-02-19T12:15:50.483Z,20.6
2019-02-19T12:16:33.026Z,20.48
2019-02-19T12:17:14.860Z,20.48
2019-02-19T12:17:55.803Z,20.5
2019-02-19T12:18:45.557Z,20.5
2019-02-19T12:19:17.881Z,20.35
2019-02-19T12:19:59.545Z,20.05
2019-02-19T12:20:40.760Z,20.02
2019-02-19T12:21:22.688Z,19.89
2019-02-19T12:22:03.875Z,19.9
2019-02-19T12:22:44.621Z,19.89
2019-02-19T12:23:28.561Z,19.8
2019-02-19T12:24:09.250Z,19.75
2019-02-19T12:24:53.867Z,19.57
2019-02-19T12:25:37.086Z,19.46
2019-02-19T12:26:22.109Z,19.52
2019-02-19T12:31:06.519Z,19.28
2019-02-19T12:31:52.579Z,19.21
2019-02-19T12:32:34.728Z,19.28
2019-02-19T12:33:19.470Z,19.34
2019-02-19T12:33:59.826Z,19.24
2019-02-19T12:34:40.351Z,19.34
2019-02-19T12:35:21.655Z,19.45
2019-02-19T12:36:08.551Z,19.35
2019-02-19T12:36:50.639Z,19.28
2019-02-19T12:37:34.115Z,19.49
2019-02-19T12:38:20.874Z,19.5
2019-02-19T12:39:03.143Z,19.5
2019-02-19T12:39:44.701Z,19.49
2019-02-19T12:40:25.769Z,19.57
2019-02-19T12:41:07.104Z,19.75
2019-02-19T12:41:49.485Z,19.76
2019-02-19T12:42:30.321Z,19.7
2019-02-19T12:43:14.513Z,19.82
2019-02-19T12:43:57.042Z,19.72
2019-02-19T12:44:37.567Z,19.78
2019-02-19T12:45:20.551Z,19.79
2019-02-19T12:46:04.205Z,19.62
2019-02-19T12:46:46.091Z,19.6
2019-02-19T12:47:32.040Z,19.5
2019-02-19T12:48:12.592Z,19.58
2019-02-19T12:48:57.180Z,19.65
2019-02-19T12:49:39.252Z,19.52
2019-02-19T12:50:20.292Z,19.57
2019-02-19T12:51:01.133Z,19.6
2019-02-19T12:51:44.652Z,19.57
2019-02-19T12:52:27.213Z,19.55
2019-02-19T12:56:20.994Z,19.07
2019-02-19T12:57:02.308Z,19.12
2019-02-19T12:57:44.450Z,19.07
2019-02-19T12:58:24.851Z,18.99
2019-02-19T12:59:09.433Z,19.01
2019-02-19T12:59:56.499Z,18.91
2019-02-19T13:00:33.638Z,18.76
2019-02-19T13:07:07.229Z,17.84
2019-02-19T13:07:52.853Z,17.71
2019-02-19T13:08:34.694Z,17.58
2019-02-19T13:09:15.161Z,17.43
2019-02-19T13:10:17.739Z,17.4
2019-02-19T13:11:02.200Z,17.36
2019-02-19T13:11:44.046Z,17.49
2019-02-19T13:12:28.378Z,17.35
2019-02-19T13:13:11.435Z,17.25
2019-02-19T13:13:53.091Z,17.18
2019-02-19T13:14:38.029Z,17.33
2019-02-19T13:15:22.715Z,17.38
2019-02-19T13:16:05.766Z,17.3
2019-02-19T13:16:51.881Z,17.14
2019-02-19T13:17:36.105Z,17.14
2019-02-19T13:18:17.523Z,17
2019-02-19T13:19:03.387Z,16.95
2019-02-19T13:19:43.168Z,16.88
2019-02-19T13:20:40.431Z,16.92
2019-02-19T13:21:26.421Z,16.98
2019-02-19T13:22:11.186Z,17.12
2019-02-19T13:23:13.594Z,16.9
2019-02-19T13:23:58.855Z,17.09
2019-02-19T13:24:44.890Z,17.1
2019-02-19T13:25:27.332Z,17.17
2019-02-19T13:26:19.407Z,17.24
2019-02-19T13:27:02.847Z,17.4
2019-02-19T13:27:48.878Z,17.36
2019-02-19T13:28:33.185Z,17.49